sensor_id;sensor_type;location;lat;lon;timestamp;P1;durP1;ratioP1;P2;durP2;ratioP2
22713;SDS011;11524;50.846;4.326;2023-03-23T00:02:23;2.30;;;1.60;;
22713;SDS011;11524;50.846;4.326;2023-03-23T00:04:49;3.72;;;1.70;;
22713;SDS011;11524;50.846;4.326;2023-03-23T00:07:15;2.70;;;1.70;;
22713;SDS011;11524;50.846;4.326;2023-03-23T00:09:46;3.42;;;1.85;;
22713;SDS011;11524;50.846;4.326;2023-03-23T00:12:12;3.33;;;1.88;;
22713;SDS011;11524;50.846;4.326;2023-03-23T00:14:40;2.17;;;1.48;;
22713;SDS011;11524;50.846;4.326;2023-03-23T00:17:09;2.13;;;1.48;;
22713;SDS011;11524;50.846;4.326;2023-03-23T00:19:36;1.67;;;1.30;;
22713;SDS011;11524;50.846;4.326;2023-03-23T00:22:15;3.42;;;1.75;;
22713;SDS011;11524;50.846;4.326;2023-03-23T00:24:42;3.10;;;1.40;;
22713;SDS011;11524;50.846;4.326;2023-03-23T00:27:09;1.70;;;1.30;;
22713;SDS011;11524;50.846;4.326;2023-03-23T00:29:37;2.85;;;1.83;;
22713;SDS011;11524;50.846;4.326;2023-03-23T00:32:05;1.70;;;1.27;;
22713;SDS011;11524;50.846;4.326;2023-03-23T00:34:31;3.17;;;1.50;;
22713;SDS011;11524;50.846;4.326;2023-03-23T00:36:57;1.80;;;1.38;;
22713;SDS011;11524;50.846;4.326;2023-03-23T00:39:27;2.17;;;1.30;;
22713;SDS011;11524;50.846;4.326;2023-03-23T00:41:54;2.97;;;1.60;;
22713;SDS011;11524;50.846;4.326;2023-03-23T00:44:25;4.15;;;1.58;;
22713;SDS011;11524;50.846;4.326;2023-03-23T00:46:53;3.38;;;1.67;;
22713;SDS011;11524;50.846;4.326;2023-03-23T00:49:21;2.08;;;1.30;;
22713;SDS011;11524;50.846;4.326;2023-03-23T00:51:49;3.50;;;1.40;;
22713;SDS011;11524;50.846;4.326;2023-03-23T00:54:15;1.55;;;1.27;;
22713;SDS011;11524;50.846;4.326;2023-03-23T00:56:41;1.58;;;1.30;;
22713;SDS011;11524;50.846;4.326;2023-03-23T00:59:06;1.63;;;1.40;;
22713;SDS011;11524;50.846;4.326;2023-03-23T01:01:32;1.73;;;1.40;;
22713;SDS011;11524;50.846;4.326;2023-03-23T01:03:59;1.65;;;1.30;;
22713;SDS011;11524;50.846;4.326;2023-03-23T01:06:29;1.40;;;1.30;;
22713;SDS011;11524;50.846;4.326;2023-03-23T01:08:56;2.97;;;1.65;;
22713;SDS011;11524;50.846;4.326;2023-03-23T01:11:22;1.88;;;1.30;;
22713;SDS011;11524;50.846;4.326;2023-03-23T01:13:49;2.60;;;1.42;;
22713;SDS011;11524;50.846;4.326;2023-03-23T01:16:14;2.28;;;1.35;;
22713;SDS011;11524;50.846;4.326;2023-03-23T01:18:40;3.55;;;1.63;;
22713;SDS011;11524;50.846;4.326;2023-03-23T01:21:10;1.88;;;1.50;;
22713;SDS011;11524;50.846;4.326;2023-03-23T01:23:37;2.95;;;1.40;;
22713;SDS011;11524;50.846;4.326;2023-03-23T01:26:04;1.60;;;1.50;;
22713;SDS011;11524;50.846;4.326;2023-03-23T01:28:32;3.28;;;1.60;;
22713;SDS011;11524;50.846;4.326;2023-03-23T01:31:02;2.55;;;1.30;;
22713;SDS011;11524;50.846;4.326;2023-03-23T01:33:29;1.77;;;1.30;;
22713;SDS011;11524;50.846;4.326;2023-03-23T01:35:55;2.58;;;1.50;;
22713;SDS011;11524;50.846;4.326;2023-03-23T01:38:21;1.63;;;1.33;;
22713;SDS011;11524;50.846;4.326;2023-03-23T01:40:47;2.20;;;1.50;;
22713;SDS011;11524;50.846;4.326;2023-03-23T01:43:13;1.40;;;1.10;;
22713;SDS011;11524;50.846;4.326;2023-03-23T01:45:40;2.20;;;1.30;;
22713;SDS011;11524;50.846;4.326;2023-03-23T01:53:28;1.50;;;1.10;;
22713;SDS011;11524;50.846;4.326;2023-03-23T01:55:56;1.60;;;1.20;;
22713;SDS011;11524;50.846;4.326;2023-03-23T01:58:26;2.03;;;1.40;;
22713;SDS011;11524;50.846;4.326;2023-03-23T02:00:54;3.67;;;1.75;;
22713;SDS011;11524;50.846;4.326;2023-03-23T02:03:23;2.00;;;1.80;;
22713;SDS011;11524;50.846;4.326;2023-03-23T02:05:50;3.22;;;1.63;;
22713;SDS011;11524;50.846;4.326;2023-03-23T02:08:17;2.75;;;1.85;;
22713;SDS011;11524;50.846;4.326;2023-03-23T02:10:43;2.67;;;1.60;;
22713;SDS011;11524;50.846;4.326;2023-03-23T02:13:09;3.45;;;1.50;;
22713;SDS011;11524;50.846;4.326;2023-03-23T02:19:03;2.20;;;1.50;;
22713;SDS011;11524;50.846;4.326;2023-03-23T02:32:21;2.78;;;1.38;;
22713;SDS011;11524;50.846;4.326;2023-03-23T02:35:24;2.30;;;1.33;;
22713;SDS011;11524;50.846;4.326;2023-03-23T02:38:08;1.92;;;1.15;;
22713;SDS011;11524;50.846;4.326;2023-03-23T02:40:44;1.50;;;1.13;;
22713;SDS011;11524;50.846;4.326;2023-03-23T02:43:13;2.58;;;1.20;;
22713;SDS011;11524;50.846;4.326;2023-03-23T02:45:44;1.45;;;1.08;;
22713;SDS011;11524;50.846;4.326;2023-03-23T02:48:10;1.77;;;1.20;;
22713;SDS011;11524;50.846;4.326;2023-03-23T02:50:40;1.95;;;1.00;;
22713;SDS011;11524;50.846;4.326;2023-03-23T02:53:10;2.03;;;1.15;;
22713;SDS011;11524;50.846;4.326;2023-03-23T02:55:39;1.48;;;1.00;;
22713;SDS011;11524;50.846;4.326;2023-03-23T02:58:08;1.48;;;0.88;;
22713;SDS011;11524;50.846;4.326;2023-03-23T03:00:34;1.67;;;0.82;;
22713;SDS011;11524;50.846;4.326;2023-03-23T03:03:00;1.75;;;0.88;;
22713;SDS011;11524;50.846;4.326;2023-03-23T03:13:23;0.82;;;0.80;;
22713;SDS011;11524;50.846;4.326;2023-03-23T03:18:45;1.13;;;0.80;;
22713;SDS011;11524;50.846;4.326;2023-03-23T03:21:17;0.77;;;0.70;;
22713;SDS011;11524;50.846;4.326;2023-03-23T03:23:45;1.35;;;0.80;;
22713;SDS011;11524;50.846;4.326;2023-03-23T03:26:14;1.13;;;0.80;;
22713;SDS011;11524;50.846;4.326;2023-03-23T03:28:41;1.67;;;1.00;;
22713;SDS011;11524;50.846;4.326;2023-03-23T03:31:12;2.38;;;1.17;;
22713;SDS011;11524;50.846;4.326;2023-03-23T03:33:38;2.72;;;0.88;;
22713;SDS011;11524;50.846;4.326;2023-03-23T03:36:04;2.95;;;1.00;;
22713;SDS011;11524;50.846;4.326;2023-03-23T03:38:43;2.33;;;0.90;;
22713;SDS011;11524;50.846;4.326;2023-03-23T03:41:09;1.73;;;0.98;;
22713;SDS011;11524;50.846;4.326;2023-03-23T03:43:35;2.63;;;0.95;;
22713;SDS011;11524;50.846;4.326;2023-03-23T03:46:01;3.78;;;1.02;;
22713;SDS011;11524;50.846;4.326;2023-03-23T03:48:27;1.58;;;0.80;;
22713;SDS011;11524;50.846;4.326;2023-03-23T03:50:53;2.15;;;1.00;;
22713;SDS011;11524;50.846;4.326;2023-03-23T03:53:21;1.08;;;0.88;;
22713;SDS011;11524;50.846;4.326;2023-03-23T03:55:47;3.35;;;1.30;;
22713;SDS011;11524;50.846;4.326;2023-03-23T03:58:14;1.35;;;0.88;;
22713;SDS011;11524;50.846;4.326;2023-03-23T04:00:40;1.77;;;0.90;;
22713;SDS011;11524;50.846;4.326;2023-03-23T04:03:07;2.42;;;0.88;;
22713;SDS011;11524;50.846;4.326;2023-03-23T04:05:34;2.30;;;1.10;;
22713;SDS011;11524;50.846;4.326;2023-03-23T04:08:01;2.25;;;0.90;;
22713;SDS011;11524;50.846;4.326;2023-03-23T04:10:28;3.17;;;1.00;;
22713;SDS011;11524;50.846;4.326;2023-03-23T04:12:56;2.42;;;0.95;;
22713;SDS011;11524;50.846;4.326;2023-03-23T04:15:22;2.20;;;1.00;;
22713;SDS011;11524;50.846;4.326;2023-03-23T04:17:48;2.10;;;1.08;;
22713;SDS011;11524;50.846;4.326;2023-03-23T04:20:15;2.60;;;0.95;;
22713;SDS011;11524;50.846;4.326;2023-03-23T04:22:46;1.75;;;0.85;;
22713;SDS011;11524;50.846;4.326;2023-03-23T04:25:17;2.38;;;1.10;;
22713;SDS011;11524;50.846;4.326;2023-03-23T04:27:45;2.47;;;1.20;;
22713;SDS011;11524;50.846;4.326;2023-03-23T04:30:17;4.15;;;1.10;;
22713;SDS011;11524;50.846;4.326;2023-03-23T04:32:44;2.33;;;1.10;;
22713;SDS011;11524;50.846;4.326;2023-03-23T04:35:12;3.08;;;1.05;;
22713;SDS011;11524;50.846;4.326;2023-03-23T04:37:39;2.03;;;1.05;;
22713;SDS011;11524;50.846;4.326;2023-03-23T04:40:07;2.17;;;0.95;;
22713;SDS011;11524;50.846;4.326;2023-03-23T04:42:38;3.17;;;1.00;;
22713;SDS011;11524;50.846;4.326;2023-03-23T04:45:05;2.15;;;0.70;;
22713;SDS011;11524;50.846;4.326;2023-03-23T04:47:33;1.67;;;0.90;;
22713;SDS011;11524;50.846;4.326;2023-03-23T04:50:06;1.45;;;1.00;;
22713;SDS011;11524;50.846;4.326;2023-03-23T04:52:37;2.15;;;1.17;;
22713;SDS011;11524;50.846;4.326;2023-03-23T04:55:05;2.17;;;1.00;;
22713;SDS011;11524;50.846;4.326;2023-03-23T04:57:32;1.60;;;0.90;;
22713;SDS011;11524;50.846;4.326;2023-03-23T04:59:59;3.15;;;1.00;;
22713;SDS011;11524;50.846;4.326;2023-03-23T05:02:25;5.72;;;1.10;;
22713;SDS011;11524;50.846;4.326;2023-03-23T05:04:55;2.92;;;1.00;;
22713;SDS011;11524;50.846;4.326;2023-03-23T05:07:22;1.48;;;0.85;;
22713;SDS011;11524;50.846;4.326;2023-03-23T05:09:48;2.28;;;1.00;;
22713;SDS011;11524;50.846;4.326;2023-03-23T05:12:14;2.60;;;1.10;;
22713;SDS011;11524;50.846;4.326;2023-03-23T05:14:40;3.20;;;1.02;;
22713;SDS011;11524;50.846;4.326;2023-03-23T05:17:06;2.08;;;0.80;;
22713;SDS011;11524;50.846;4.326;2023-03-23T05:19:32;1.95;;;0.85;;
22713;SDS011;11524;50.846;4.326;2023-03-23T05:21:58;1.58;;;0.85;;
22713;SDS011;11524;50.846;4.326;2023-03-23T05:24:30;3.63;;;1.08;;
22713;SDS011;11524;50.846;4.326;2023-03-23T05:26:57;2.05;;;1.00;;
22713;SDS011;11524;50.846;4.326;2023-03-23T05:29:24;2.00;;;0.98;;
22713;SDS011;11524;50.846;4.326;2023-03-23T05:31:53;1.60;;;0.90;;
22713;SDS011;11524;50.846;4.326;2023-03-23T05:34:20;2.15;;;0.95;;
22713;SDS011;11524;50.846;4.326;2023-03-23T05:36:46;1.38;;;0.68;;
22713;SDS011;11524;50.846;4.326;2023-03-23T05:39:12;2.75;;;0.90;;
22713;SDS011;11524;50.846;4.326;2023-03-23T05:41:38;2.30;;;1.10;;
22713;SDS011;11524;50.846;4.326;2023-03-23T05:44:04;1.88;;;0.88;;
22713;SDS011;11524;50.846;4.326;2023-03-23T05:46:30;3.15;;;1.30;;
22713;SDS011;11524;50.846;4.326;2023-03-23T05:48:55;2.80;;;0.95;;
22713;SDS011;11524;50.846;4.326;2023-03-23T05:51:21;2.20;;;0.77;;
22713;SDS011;11524;50.846;4.326;2023-03-23T05:53:47;1.33;;;0.85;;
22713;SDS011;11524;50.846;4.326;2023-03-23T05:56:13;2.03;;;0.85;;
22713;SDS011;11524;50.846;4.326;2023-03-23T05:58:39;2.70;;;1.08;;
22713;SDS011;11524;50.846;4.326;2023-03-23T06:01:08;1.77;;;0.80;;
22713;SDS011;11524;50.846;4.326;2023-03-23T06:03:33;2.95;;;0.80;;
22713;SDS011;11524;50.846;4.326;2023-03-23T06:06:01;2.80;;;0.98;;
22713;SDS011;11524;50.846;4.326;2023-03-23T06:08:28;2.53;;;0.88;;
22713;SDS011;11524;50.846;4.326;2023-03-23T06:10:54;4.30;;;1.00;;
22713;SDS011;11524;50.846;4.326;2023-03-23T06:13:20;3.15;;;0.93;;
22713;SDS011;11524;50.846;4.326;2023-03-23T06:15:46;2.97;;;0.90;;
22713;SDS011;11524;50.846;4.326;2023-03-23T06:18:12;2.03;;;0.88;;
22713;SDS011;11524;50.846;4.326;2023-03-23T06:20:38;3.17;;;1.10;;
22713;SDS011;11524;50.846;4.326;2023-03-23T06:23:05;3.25;;;1.15;;
22713;SDS011;11524;50.846;4.326;2023-03-23T06:25:31;3.25;;;1.10;;
22713;SDS011;11524;50.846;4.326;2023-03-23T06:27:57;6.60;;;1.17;;
22713;SDS011;11524;50.846;4.326;2023-03-23T06:30:23;5.03;;;1.20;;
22713;SDS011;11524;50.846;4.326;2023-03-23T06:32:49;7.10;;;0.93;;
22713;SDS011;11524;50.846;4.326;2023-03-23T06:35:15;2.33;;;0.90;;
22713;SDS011;11524;50.846;4.326;2023-03-23T06:37:41;3.03;;;1.00;;
22713;SDS011;11524;50.846;4.326;2023-03-23T06:40:07;3.42;;;1.33;;
22713;SDS011;11524;50.846;4.326;2023-03-23T06:42:35;1.70;;;0.90;;
22713;SDS011;11524;50.846;4.326;2023-03-23T06:45:02;3.28;;;1.00;;
22713;SDS011;11524;50.846;4.326;2023-03-23T06:47:29;4.72;;;1.23;;
22713;SDS011;11524;50.846;4.326;2023-03-23T06:49:56;5.03;;;1.33;;
22713;SDS011;11524;50.846;4.326;2023-03-23T06:52:22;4.55;;;1.38;;
22713;SDS011;11524;50.846;4.326;2023-03-23T06:54:49;3.58;;;1.23;;
22713;SDS011;11524;50.846;4.326;2023-03-23T06:57:15;4.88;;;1.13;;
22713;SDS011;11524;50.846;4.326;2023-03-23T06:59:41;5.15;;;1.30;;
22713;SDS011;11524;50.846;4.326;2023-03-23T07:02:11;4.63;;;1.27;;
22713;SDS011;11524;50.846;4.326;2023-03-23T07:04:38;3.28;;;0.98;;
22713;SDS011;11524;50.846;4.326;2023-03-23T07:07:05;3.22;;;0.90;;
22713;SDS011;11524;50.846;4.326;2023-03-23T07:09:32;3.03;;;0.68;;
22713;SDS011;11524;50.846;4.326;2023-03-23T07:11:58;7.97;;;1.67;;
22713;SDS011;11524;50.846;4.326;2023-03-23T07:14:24;3.33;;;1.30;;
22713;SDS011;11524;50.846;4.326;2023-03-23T07:16:49;3.85;;;1.10;;
22713;SDS011;11524;50.846;4.326;2023-03-23T07:19:16;2.97;;;0.90;;
22713;SDS011;11524;50.846;4.326;2023-03-23T07:21:41;3.95;;;1.10;;
22713;SDS011;11524;50.846;4.326;2023-03-23T07:24:11;2.20;;;0.93;;
22713;SDS011;11524;50.846;4.326;2023-03-23T07:26:39;6.13;;;1.25;;
22713;SDS011;11524;50.846;4.326;2023-03-23T07:29:08;2.80;;;1.13;;
22713;SDS011;11524;50.846;4.326;2023-03-23T07:31:34;3.60;;;1.00;;
22713;SDS011;11524;50.846;4.326;2023-03-23T07:34:00;3.17;;;1.08;;
22713;SDS011;11524;50.846;4.326;2023-03-23T07:36:26;3.92;;;1.10;;
22713;SDS011;11524;50.846;4.326;2023-03-23T07:38:51;2.38;;;1.00;;
22713;SDS011;11524;50.846;4.326;2023-03-23T07:41:18;2.72;;;1.10;;
22713;SDS011;11524;50.846;4.326;2023-03-23T07:43:44;4.38;;;1.10;;
22713;SDS011;11524;50.846;4.326;2023-03-23T07:46:11;5.38;;;1.10;;
22713;SDS011;11524;50.846;4.326;2023-03-23T07:48:37;4.40;;;1.17;;
22713;SDS011;11524;50.846;4.326;2023-03-23T07:51:03;3.25;;;1.10;;
22713;SDS011;11524;50.846;4.326;2023-03-23T07:53:30;2.50;;;1.05;;
22713;SDS011;11524;50.846;4.326;2023-03-23T07:55:56;3.75;;;1.05;;
22713;SDS011;11524;50.846;4.326;2023-03-23T07:58:22;6.25;;;1.27;;
22713;SDS011;11524;50.846;4.326;2023-03-23T08:00:47;4.97;;;1.25;;
22713;SDS011;11524;50.846;4.326;2023-03-23T08:03:14;3.45;;;1.10;;
22713;SDS011;11524;50.846;4.326;2023-03-23T08:05:40;6.88;;;1.30;;
22713;SDS011;11524;50.846;4.326;2023-03-23T08:08:07;4.28;;;1.17;;
22713;SDS011;11524;50.846;4.326;2023-03-23T08:10:35;1.23;;;0.77;;
22713;SDS011;11524;50.846;4.326;2023-03-23T08:13:01;1.77;;;0.95;;
22713;SDS011;11524;50.846;4.326;2023-03-23T08:15:27;1.55;;;0.88;;
22713;SDS011;11524;50.846;4.326;2023-03-23T08:17:53;2.70;;;1.13;;
22713;SDS011;11524;50.846;4.326;2023-03-23T08:20:19;3.38;;;0.80;;
22713;SDS011;11524;50.846;4.326;2023-03-23T08:22:49;2.40;;;0.82;;
22713;SDS011;11524;50.846;4.326;2023-03-23T08:25:20;2.25;;;1.00;;
22713;SDS011;11524;50.846;4.326;2023-03-23T08:27:46;5.22;;;1.13;;
22713;SDS011;11524;50.846;4.326;2023-03-23T08:30:13;2.95;;;1.13;;
22713;SDS011;11524;50.846;4.326;2023-03-23T08:32:41;3.65;;;1.15;;
22713;SDS011;11524;50.846;4.326;2023-03-23T08:35:08;1.80;;;0.90;;
22713;SDS011;11524;50.846;4.326;2023-03-23T08:37:34;2.70;;;1.10;;
22713;SDS011;11524;50.846;4.326;2023-03-23T08:40:00;1.95;;;0.77;;
22713;SDS011;11524;50.846;4.326;2023-03-23T08:42:32;2.70;;;0.82;;
22713;SDS011;11524;50.846;4.326;2023-03-23T08:44:58;3.08;;;1.10;;
22713;SDS011;11524;50.846;4.326;2023-03-23T08:47:24;2.20;;;0.80;;
22713;SDS011;11524;50.846;4.326;2023-03-23T08:49:50;2.15;;;0.70;;
22713;SDS011;11524;50.846;4.326;2023-03-23T08:52:18;2.20;;;1.08;;
22713;SDS011;11524;50.846;4.326;2023-03-23T08:54:44;1.67;;;0.63;;
22713;SDS011;11524;50.846;4.326;2023-03-23T08:57:12;4.10;;;1.27;;
22713;SDS011;11524;50.846;4.326;2023-03-23T08:59:39;3.88;;;1.15;;
22713;SDS011;11524;50.846;4.326;2023-03-23T09:02:06;3.65;;;0.80;;
22713;SDS011;11524;50.846;4.326;2023-03-23T09:04:34;5.40;;;0.85;;
22713;SDS011;11524;50.846;4.326;2023-03-23T09:07:00;2.72;;;0.70;;
22713;SDS011;11524;50.846;4.326;2023-03-23T09:09:26;1.88;;;0.90;;
22713;SDS011;11524;50.846;4.326;2023-03-23T09:11:52;2.70;;;0.90;;
22713;SDS011;11524;50.846;4.326;2023-03-23T09:14:18;2.75;;;0.80;;
22713;SDS011;11524;50.846;4.326;2023-03-23T09:16:44;4.65;;;1.02;;
22713;SDS011;11524;50.846;4.326;2023-03-23T09:19:10;2.63;;;0.80;;
22713;SDS011;11524;50.846;4.326;2023-03-23T09:21:37;3.53;;;0.85;;
22713;SDS011;11524;50.846;4.326;2023-03-23T09:24:03;2.05;;;0.88;;
22713;SDS011;11524;50.846;4.326;2023-03-23T09:26:29;2.00;;;0.85;;
22713;SDS011;11524;50.846;4.326;2023-03-23T09:28:56;2.70;;;1.17;;
22713;SDS011;11524;50.846;4.326;2023-03-23T09:31:23;3.00;;;0.90;;
22713;SDS011;11524;50.846;4.326;2023-03-23T09:33:51;1.98;;;1.00;;
22713;SDS011;11524;50.846;4.326;2023-03-23T09:36:21;1.75;;;0.80;;
22713;SDS011;11524;50.846;4.326;2023-03-23T09:38:47;1.58;;;0.75;;
22713;SDS011;11524;50.846;4.326;2023-03-23T09:47:07;2.75;;;1.00;;
22713;SDS011;11524;50.846;4.326;2023-03-23T09:49:50;2.88;;;0.90;;
22713;SDS011;11524;50.846;4.326;2023-03-23T09:52:36;1.65;;;0.88;;
22713;SDS011;11524;50.846;4.326;2023-03-23T09:55:08;1.83;;;0.77;;
22713;SDS011;11524;50.846;4.326;2023-03-23T10:00:37;3.90;;;0.93;;
22713;SDS011;11524;50.846;4.326;2023-03-23T10:05:51;1.55;;;0.80;;
22713;SDS011;11524;50.846;4.326;2023-03-23T10:08:22;1.08;;;0.82;;
22713;SDS011;11524;50.846;4.326;2023-03-23T10:13:40;1.85;;;0.82;;
22713;SDS011;11524;50.846;4.326;2023-03-23T10:16:15;1.45;;;0.80;;
22713;SDS011;11524;50.846;4.326;2023-03-23T10:18:52;1.85;;;0.90;;
22713;SDS011;11524;50.846;4.326;2023-03-23T10:21:21;1.58;;;0.70;;
22713;SDS011;11524;50.846;4.326;2023-03-23T10:24:02;1.40;;;0.70;;
22713;SDS011;11524;50.846;4.326;2023-03-23T10:31:59;1.77;;;0.90;;
22713;SDS011;11524;50.846;4.326;2023-03-23T10:34:49;1.33;;;0.75;;
22713;SDS011;11524;50.846;4.326;2023-03-23T10:37:28;2.10;;;1.05;;
22713;SDS011;11524;50.846;4.326;2023-03-23T10:39:58;2.40;;;1.33;;
22713;SDS011;11524;50.846;4.326;2023-03-23T10:42:27;1.60;;;1.05;;
22713;SDS011;11524;50.846;4.326;2023-03-23T10:44:55;2.67;;;1.30;;
22713;SDS011;11524;50.846;4.326;2023-03-23T10:47:23;1.67;;;0.98;;
22713;SDS011;11524;50.846;4.326;2023-03-23T10:49:50;2.58;;;1.00;;
22713;SDS011;11524;50.846;4.326;2023-03-23T10:55:13;2.10;;;1.00;;
22713;SDS011;11524;50.846;4.326;2023-03-23T10:57:42;2.17;;;0.98;;
22713;SDS011;11524;50.846;4.326;2023-03-23T11:00:20;3.00;;;1.30;;
22713;SDS011;11524;50.846;4.326;2023-03-23T11:05:55;3.03;;;1.33;;
22713;SDS011;11524;50.846;4.326;2023-03-23T11:08:26;3.05;;;1.00;;
22713;SDS011;11524;50.846;4.326;2023-03-23T11:11:09;2.55;;;0.95;;
22713;SDS011;11524;50.846;4.326;2023-03-23T11:13:39;1.98;;;0.85;;
22713;SDS011;11524;50.846;4.326;2023-03-23T11:16:09;3.47;;;1.30;;
22713;SDS011;11524;50.846;4.326;2023-03-23T11:18:39;3.20;;;1.13;;
22713;SDS011;11524;50.846;4.326;2023-03-23T11:21:09;3.33;;;1.40;;
22713;SDS011;11524;50.846;4.326;2023-03-23T11:23:38;3.20;;;1.48;;
22713;SDS011;11524;50.846;4.326;2023-03-23T11:28:43;2.58;;;1.00;;
22713;SDS011;11524;50.846;4.326;2023-03-23T11:31:16;3.00;;;1.10;;
22713;SDS011;11524;50.846;4.326;2023-03-23T11:33:53;2.45;;;1.10;;
22713;SDS011;11524;50.846;4.326;2023-03-23T11:36:37;1.45;;;0.90;;
22713;SDS011;11524;50.846;4.326;2023-03-23T11:39:23;3.03;;;1.10;;
22713;SDS011;11524;50.846;4.326;2023-03-23T11:41:57;3.33;;;0.98;;
22713;SDS011;11524;50.846;4.326;2023-03-23T11:44:40;2.70;;;1.13;;
22713;SDS011;11524;50.846;4.326;2023-03-23T11:47:27;3.55;;;1.20;;
22713;SDS011;11524;50.846;4.326;2023-03-23T11:53:09;2.50;;;1.10;;
22713;SDS011;11524;50.846;4.326;2023-03-23T11:58:13;2.67;;;1.15;;
22713;SDS011;11524;50.846;4.326;2023-03-23T12:06:24;2.72;;;1.10;;
22713;SDS011;11524;50.846;4.326;2023-03-23T12:09:01;2.22;;;0.98;;
22713;SDS011;11524;50.846;4.326;2023-03-23T12:14:34;5.75;;;1.10;;
22713;SDS011;11524;50.846;4.326;2023-03-23T12:25:47;2.10;;;1.00;;
22713;SDS011;11524;50.846;4.326;2023-03-23T12:43:00;2.47;;;1.25;;
22713;SDS011;11524;50.846;4.326;2023-03-23T12:48:51;3.25;;;1.00;;
22713;SDS011;11524;50.846;4.326;2023-03-23T12:54:25;4.13;;;1.58;;
22713;SDS011;11524;50.846;4.326;2023-03-23T13:02:20;3.60;;;1.63;;
22713;SDS011;11524;50.846;4.326;2023-03-23T13:07:52;1.73;;;1.02;;
22713;SDS011;11524;50.846;4.326;2023-03-23T13:10:47;3.28;;;1.58;;
22713;SDS011;11524;50.846;4.326;2023-03-23T13:13:25;2.58;;;1.40;;
22713;SDS011;11524;50.846;4.326;2023-03-23T13:16:25;2.53;;;1.27;;
22713;SDS011;11524;50.846;4.326;2023-03-23T13:21:50;2.90;;;1.20;;
22713;SDS011;11524;50.846;4.326;2023-03-23T13:24:31;4.15;;;1.55;;
22713;SDS011;11524;50.846;4.326;2023-03-23T13:26:59;2.47;;;1.33;;
22713;SDS011;11524;50.846;4.326;2023-03-23T13:29:26;2.70;;;1.23;;
22713;SDS011;11524;50.846;4.326;2023-03-23T13:32:04;4.10;;;1.65;;
22713;SDS011;11524;50.846;4.326;2023-03-23T13:34:31;4.22;;;1.30;;
22713;SDS011;11524;50.846;4.326;2023-03-23T13:36:59;2.95;;;1.08;;
22713;SDS011;11524;50.846;4.326;2023-03-23T13:42:00;4.47;;;1.15;;
22713;SDS011;11524;50.846;4.326;2023-03-23T13:47:37;3.40;;;1.35;;
22713;SDS011;11524;50.846;4.326;2023-03-23T13:55:20;5.15;;;1.50;;
22713;SDS011;11524;50.846;4.326;2023-03-23T13:57:55;5.10;;;1.73;;
22713;SDS011;11524;50.846;4.326;2023-03-23T14:05:36;3.40;;;1.48;;
22713;SDS011;11524;50.846;4.326;2023-03-23T14:10:39;5.22;;;1.70;;
22713;SDS011;11524;50.846;4.326;2023-03-23T14:16:27;3.45;;;1.40;;
22713;SDS011;11524;50.846;4.326;2023-03-23T14:18:57;5.28;;;1.75;;
22713;SDS011;11524;50.846;4.326;2023-03-23T14:26:38;5.38;;;1.63;;
22713;SDS011;11524;50.846;4.326;2023-03-23T14:29:11;5.85;;;1.42;;
22713;SDS011;11524;50.846;4.326;2023-03-23T14:31:38;5.38;;;2.03;;
22713;SDS011;11524;50.846;4.326;2023-03-23T14:34:14;2.83;;;1.20;;
22713;SDS011;11524;50.846;4.326;2023-03-23T14:36:44;6.35;;;1.90;;
22713;SDS011;11524;50.846;4.326;2023-03-23T14:41:41;3.00;;;1.38;;
22713;SDS011;11524;50.846;4.326;2023-03-23T14:44:10;4.97;;;1.45;;
22713;SDS011;11524;50.846;4.326;2023-03-23T14:47:00;4.68;;;1.55;;
22713;SDS011;11524;50.846;4.326;2023-03-23T14:49:35;3.85;;;1.60;;
22713;SDS011;11524;50.846;4.326;2023-03-23T14:52:13;4.05;;;1.25;;
22713;SDS011;11524;50.846;4.326;2023-03-23T14:54:41;3.38;;;1.08;;
22713;SDS011;11524;50.846;4.326;2023-03-23T14:59:45;2.97;;;1.27;;
22713;SDS011;11524;50.846;4.326;2023-03-23T15:04:45;5.07;;;1.40;;
22713;SDS011;11524;50.846;4.326;2023-03-23T15:07:13;3.92;;;1.42;;
22713;SDS011;11524;50.846;4.326;2023-03-23T15:09:43;3.22;;;1.42;;
22713;SDS011;11524;50.846;4.326;2023-03-23T15:12:19;4.82;;;1.33;;
22713;SDS011;11524;50.846;4.326;2023-03-23T15:14:48;4.28;;;1.40;;
22713;SDS011;11524;50.846;4.326;2023-03-23T15:17:19;3.88;;;1.88;;
22713;SDS011;11524;50.846;4.326;2023-03-23T15:20:07;4.53;;;1.40;;
22713;SDS011;11524;50.846;4.326;2023-03-23T15:22:45;3.30;;;1.60;;
22713;SDS011;11524;50.846;4.326;2023-03-23T15:25:17;4.93;;;1.70;;
22713;SDS011;11524;50.846;4.326;2023-03-23T15:27:49;6.13;;;2.05;;
22713;SDS011;11524;50.846;4.326;2023-03-23T15:32:48;6.60;;;2.70;;
22713;SDS011;11524;50.846;4.326;2023-03-23T15:35:20;6.85;;;3.15;;
22713;SDS011;11524;50.846;4.326;2023-03-23T15:37:52;7.45;;;3.10;;
22713;SDS011;11524;50.846;4.326;2023-03-23T15:40:23;6.88;;;2.90;;
22713;SDS011;11524;50.846;4.326;2023-03-23T15:42:50;6.18;;;2.45;;
22713;SDS011;11524;50.846;4.326;2023-03-23T15:45:51;5.00;;;2.20;;
22713;SDS011;11524;50.846;4.326;2023-03-23T15:48:47;5.53;;;2.13;;
22713;SDS011;11524;50.846;4.326;2023-03-23T15:51:23;5.30;;;2.00;;
22713;SDS011;11524;50.846;4.326;2023-03-23T15:53:51;4.65;;;1.92;;
22713;SDS011;11524;50.846;4.326;2023-03-23T15:56:18;5.07;;;2.13;;
22713;SDS011;11524;50.846;4.326;2023-03-23T15:58:44;4.78;;;1.98;;
22713;SDS011;11524;50.846;4.326;2023-03-23T16:01:11;6.13;;;1.95;;
22713;SDS011;11524;50.846;4.326;2023-03-23T16:06:22;8.15;;;1.77;;
22713;SDS011;11524;50.846;4.326;2023-03-23T16:08:49;3.78;;;1.70;;
22713;SDS011;11524;50.846;4.326;2023-03-23T16:11:16;3.60;;;1.58;;
22713;SDS011;11524;50.846;4.326;2023-03-23T16:13:43;3.45;;;1.50;;
22713;SDS011;11524;50.846;4.326;2023-03-23T16:16:11;4.38;;;1.58;;
22713;SDS011;11524;50.846;4.326;2023-03-23T16:18:42;5.55;;;1.65;;
22713;SDS011;11524;50.846;4.326;2023-03-23T16:21:08;3.72;;;1.80;;
22713;SDS011;11524;50.846;4.326;2023-03-23T16:23:33;4.45;;;1.42;;
22713;SDS011;11524;50.846;4.326;2023-03-23T16:25:59;2.20;;;1.30;;
22713;SDS011;11524;50.846;4.326;2023-03-23T16:28:25;5.78;;;1.80;;
22713;SDS011;11524;50.846;4.326;2023-03-23T16:30:51;5.05;;;1.90;;
22713;SDS011;11524;50.846;4.326;2023-03-23T16:33:16;4.90;;;1.77;;
22713;SDS011;11524;50.846;4.326;2023-03-23T16:35:42;5.90;;;1.67;;
22713;SDS011;11524;50.846;4.326;2023-03-23T16:38:12;3.67;;;1.80;;
22713;SDS011;11524;50.846;4.326;2023-03-23T16:40:40;5.93;;;2.20;;
22713;SDS011;11524;50.846;4.326;2023-03-23T16:43:07;4.28;;;2.00;;
22713;SDS011;11524;50.846;4.326;2023-03-23T16:45:33;4.30;;;2.40;;
22713;SDS011;11524;50.846;4.326;2023-03-23T16:47:59;3.80;;;1.85;;
22713;SDS011;11524;50.846;4.326;2023-03-23T16:50:26;4.05;;;1.60;;
22713;SDS011;11524;50.846;4.326;2023-03-23T16:52:53;6.40;;;2.38;;
22713;SDS011;11524;50.846;4.326;2023-03-23T16:55:19;5.50;;;2.25;;
22713;SDS011;11524;50.846;4.326;2023-03-23T16:57:45;4.13;;;2.13;;
22713;SDS011;11524;50.846;4.326;2023-03-23T17:00:14;5.90;;;1.73;;
22713;SDS011;11524;50.846;4.326;2023-03-23T17:02:45;5.45;;;1.98;;
22713;SDS011;11524;50.846;4.326;2023-03-23T17:05:12;5.60;;;2.20;;
22713;SDS011;11524;50.846;4.326;2023-03-23T17:07:38;4.90;;;1.90;;
22713;SDS011;11524;50.846;4.326;2023-03-23T17:10:06;4.88;;;2.00;;
22713;SDS011;11524;50.846;4.326;2023-03-23T17:12:33;6.50;;;2.17;;
22713;SDS011;11524;50.846;4.326;2023-03-23T17:15:00;5.68;;;2.10;;
22713;SDS011;11524;50.846;4.326;2023-03-23T17:17:25;6.55;;;2.13;;
22713;SDS011;11524;50.846;4.326;2023-03-23T17:19:51;7.22;;;2.17;;
22713;SDS011;11524;50.846;4.326;2023-03-23T17:22:17;7.03;;;2.25;;
22713;SDS011;11524;50.846;4.326;2023-03-23T17:24:43;6.63;;;2.03;;
22713;SDS011;11524;50.846;4.326;2023-03-23T17:27:09;6.78;;;2.30;;
22713;SDS011;11524;50.846;4.326;2023-03-23T17:29:35;6.45;;;2.05;;
22713;SDS011;11524;50.846;4.326;2023-03-23T17:34:45;5.10;;;2.00;;
22713;SDS011;11524;50.846;4.326;2023-03-23T17:37:14;4.75;;;2.00;;